Time;durP1;ratioP1;P1;durP2;ratioP2;P2;SDS_P1;SDS_P2;PMS_P1;PMS_P2;Temp;Humidity;BMP_temperature;BMP_pressure;BME280_temperature;BME280_humidity;BME280_pressure;Samples;Min_cycle;Max_cycle;Signal;HPM_P1;HPM_P2
2022/11/06 00:01:15;;;;;;;11.85;5.57;;;10.30;99.90;;;;;;6210696;23;20437;-81
2022/11/06 00:03:42;;;;;;;13.13;5.60;;;10.30;99.90;;;;;;6210736;23;20677;-81
2022/11/06 00:09:07;;;;;;;10.25;5.10;;;10.30;99.90;;;;;;6210520;23;20108;-81
2022/11/06 00:11:33;;;;;;;12.25;5.75;;;10.30;99.90;;;;;;6210514;23;20035;-81
2022/11/06 00:14:00;;;;;;;12.00;6.65;;;10.30;99.90;;;;;;6209956;23;20433;-81
2022/11/06 00:16:26;;;;;;;13.98;6.07;;;10.20;99.90;;;;;;6210817;23;20139;-80
2022/11/06 00:18:52;;;;;;;11.95;5.90;;;10.20;99.90;;;;;;6183218;23;20048;-81
2022/11/06 00:21:21;;;;;;;12.15;6.10;;;10.20;99.90;;;;;;6209942;23;20016;-81
2022/11/06 00:23:47;;;;;;;11.95;6.55;;;10.10;99.90;;;;;;6182788;23;20016;-81
2022/11/06 00:26:15;;;;;;;14.38;6.63;;;10.10;99.90;;;;;;6208396;23;20012;-81
2022/11/06 00:28:41;;;;;;;9.68;5.90;;;10.00;99.90;;;;;;6211064;23;20008;-81
2022/11/06 00:31:09;;;;;;;11.82;6.75;;;10.00;99.90;;;;;;6211503;23;20008;-81
2022/11/06 00:33:35;;;;;;;13.45;6.78;;;10.00;99.90;;;;;;6211752;23;20116;-81
2022/11/06 00:36:03;;;;;;;11.02;7.18;;;9.90;99.90;;;;;;6212269;23;20047;-80
2022/11/06 00:38:29;;;;;;;12.45;7.22;;;9.90;99.90;;;;;;6212528;23;20162;-81
2022/11/06 00:40:55;;;;;;;15.50;6.63;;;9.90;99.90;;;;;;6212285;23;20123;-80
2022/11/06 00:43:21;;;;;;;12.20;7.00;;;9.90;99.90;;;;;;6211928;23;20021;-82
2022/11/06 00:45:46;;;;;;;10.73;7.45;;;9.80;99.90;;;;;;6184791;23;20024;-81
2022/11/06 00:48:12;;;;;;;13.23;7.22;;;9.80;99.90;;;;;;6184999;23;20438;-81
2022/11/06 00:50:37;;;;;;;12.95;7.18;;;9.70;99.90;;;;;;6160613;23;20063;-81
2022/11/06 00:53:03;;;;;;;13.73;8.20;;;9.70;99.90;;;;;;6185832;23;20012;-80
2022/11/06 00:55:29;;;;;;;14.05;7.53;;;9.70;99.90;;;;;;6212725;23;20031;-79
2022/11/06 00:57:54;;;;;;;16.63;7.85;;;9.60;99.90;;;;;;6185636;23;20322;-81
2022/11/06 01:00:21;;;;;;;12.27;7.78;;;9.60;99.90;;;;;;6212937;23;20341;-81
2022/11/06 01:02:47;;;;;;;13.48;7.43;;;9.60;99.90;;;;;;6211778;23;20078;-81
2022/11/06 01:05:13;;;;;;;16.40;7.95;;;9.60;99.90;;;;;;6212477;23;20016;-81
2022/11/06 01:07:39;;;;;;;20.02;8.35;;;9.60;99.90;;;;;;6212786;23;20386;-81
2022/11/06 01:10:06;;;;;;;16.15;7.95;;;9.50;99.90;;;;;;6185486;23;20021;-81
2022/11/06 01:12:33;;;;;;;16.42;8.15;;;9.50;99.90;;;;;;6211672;23;20024;-81
2022/11/06 01:14:58;;;;;;;12.00;7.60;;;9.60;99.90;;;;;;6212413;23;20012;-81
2022/11/06 01:17:24;;;;;;;22.25;8.80;;;9.50;99.90;;;;;;6212076;23;20036;-81
2022/11/06 01:19:50;;;;;;;16.33;8.27;;;9.50;99.90;;;;;;6213187;23;20016;-81
2022/11/06 01:22:16;;;;;;;14.90;8.25;;;9.50;99.90;;;;;;6212054;23;20023;-79
2022/11/06 01:24:41;;;;;;;14.82;7.93;;;9.50;99.90;;;;;;6185600;23;20040;-80
2022/11/06 01:27:07;;;;;;;16.38;8.80;;;9.50;99.90;;;;;;6185785;23;20009;-81
2022/11/06 01:29:33;;;;;;;14.77;8.13;;;9.50;99.90;;;;;;6212956;23;20066;-81
2022/11/06 01:31:59;;;;;;;14.20;8.48;;;9.50;99.90;;;;;;6185759;23;20083;-81
2022/11/06 01:34:24;;;;;;;14.70;7.97;;;9.50;99.90;;;;;;6213029;23;20063;-81
2022/11/06 01:36:50;;;;;;;15.40;8.10;;;9.50;99.90;;;;;;6212514;23;20094;-80
2022/11/06 01:39:16;;;;;;;14.70;8.05;;;9.50;99.90;;;;;;6212605;23;20095;-82
2022/11/06 01:41:47;;;;;;;16.60;8.60;;;9.40;99.90;;;;;;6212285;23;20024;-81
2022/11/06 01:44:13;;;;;;;16.05;7.57;;;9.40;99.90;;;;;;6212996;23;20019;-80
2022/11/06 01:46:39;;;;;;;16.88;8.68;;;9.40;99.90;;;;;;6212329;23;20224;-81
2022/11/06 01:49:10;;;;;;;16.08;8.20;;;9.50;99.90;;;;;;6185237;23;20028;-81
2022/11/06 01:51:51;;;;;;;13.98;8.27;;;9.40;99.90;;;;;;6213790;23;20720;-81
2022/11/06 01:54:18;;;;;;;15.23;8.27;;;9.50;99.90;;;;;;6212938;23;20009;-81
2022/11/06 01:56:48;;;;;;;14.93;8.73;;;9.40;99.90;;;;;;6211587;23;20024;-81
2022/11/06 01:59:16;;;;;;;14.18;8.65;;;9.40;99.90;;;;;;6185790;23;20022;-81
2022/11/06 02:01:42;;;;;;;17.38;8.82;;;9.40;99.90;;;;;;6212443;23;20508;-81
2022/11/06 02:04:21;;;;;;;16.40;8.77;;;9.40;99.90;;;;;;6211786;23;20055;-81
2022/11/06 02:06:47;;;;;;;16.92;9.10;;;9.40;99.90;;;;;;6185255;23;20024;-81
2022/11/06 02:09:14;;;;;;;14.93;8.57;;;9.40;99.90;;;;;;6212500;23;20059;-81
2022/11/06 02:11:42;;;;;;;16.08;9.30;;;9.40;99.90;;;;;;6212408;23;20142;-81
2022/11/06 02:14:19;;;;;;;17.38;8.32;;;9.40;99.90;;;;;;6212481;23;20009;-80
2022/11/06 02:16:53;;;;;;;16.25;9.50;;;9.40;99.90;;;;;;6211465;23;20020;-81
2022/11/06 02:19:52;;;;;;;15.32;8.80;;;9.40;99.90;;;;;;6212512;23;20020;-81
2022/11/06 02:22:42;;;;;;;16.77;9.70;;;9.40;99.90;;;;;;6185983;23;20063;-81
2022/11/06 02:25:18;;;;;;;20.55;9.95;;;9.40;99.90;;;;;;6186209;23;20070;-81
2022/11/06 02:27:53;;;;;;;19.73;9.50;;;9.40;99.90;;;;;;6185012;23;20023;-81
2022/11/06 02:30:19;;;;;;;17.58;9.45;;;9.30;99.90;;;;;;6211487;23;20048;-81
2022/11/06 02:32:55;;;;;;;16.48;9.43;;;9.50;99.90;;;;;;6212001;23;20012;-81
2022/11/06 02:35:32;;;;;;;17.75;9.82;;;9.40;99.90;;;;;;6212906;23;20111;-82
2022/11/06 02:38:03;;;;;;;15.63;9.90;;;9.30;99.90;;;;;;6185472;23;20341;-82
2022/11/06 02:40:32;;;;;;;16.40;10.20;;;9.30;99.90;;;;;;6211905;23;20364;-81
2022/11/06 02:43:01;;;;;;;18.70;10.00;;;9.30;99.90;;;;;;6212394;23;20013;-81
2022/11/06 02:45:30;;;;;;;15.13;9.63;;;9.30;99.90;;;;;;6211595;23;20051;-81
2022/11/06 02:47:58;;;;;;;15.45;10.27;;;9.30;99.90;;;;;;6160513;23;20020;-81
2022/11/06 02:50:36;;;;;;;18.17;10.55;;;9.30;99.90;;;;;;6184655;23;20684;-81
2022/11/06 02:53:06;;;;;;;18.58;10.07;;;9.30;99.90;;;;;;6185322;23;20036;-81
2022/11/06 02:55:42;;;;;;;16.77;10.63;;;9.30;99.90;;;;;;6211328;23;20051;-81
2022/11/06 02:58:25;;;;;;;17.50;10.13;;;9.30;99.90;;;;;;6211491;23;20031;-81
2022/11/06 03:00:58;;;;;;;20.25;10.18;;;9.30;99.90;;;;;;6184394;23;20025;-81
2022/11/06 03:03:28;;;;;;;16.95;10.57;;;9.30;99.90;;;;;;6211612;23;20013;-82
2022/11/06 03:06:03;;;;;;;16.90;10.88;;;9.30;99.90;;;;;;6211574;23;20433;-81
2022/11/06 03:08:35;;;;;;;;;;;9.30;99.90;;;;;;6211568;23;20432;-81
2022/11/06 03:11:05;;;;;;;15.52;9.18;;;9.30;99.90;;;;;;6209974;23;20599;-81
2022/11/06 03:13:42;;;;;;;19.77;10.27;;;9.30;99.90;;;;;;6211225;23;20370;-81
2022/11/06 03:16:20;;;;;;;18.15;10.43;;;9.30;99.90;;;;;;6211983;23;20067;-81
2022/11/06 03:18:54;;;;;;;20.45;10.55;;;9.20;99.90;;;;;;6211467;23;20009;-81
2022/11/06 03:21:30;;;;;;;;;;;9.20;99.90;;;;;;6211699;23;20392;-81
2022/11/06 03:24:40;;;;;;;17.65;10.00;;;9.20;99.90;;;;;;6209618;23;19939;-81
2022/11/06 03:27:17;;;;;;;15.20;9.57;;;9.20;99.90;;;;;;6210293;23;20048;-81
2022/11/06 03:29:51;;;;;;;16.08;10.13;;;9.10;99.90;;;;;;6210997;23;20009;-81
2022/11/06 03:32:25;;;;;;;15.60;10.18;;;9.20;99.90;;;;;;6183998;23;20065;-82
2022/11/06 03:35:12;;;;;;;18.70;10.35;;;9.20;99.90;;;;;;6211312;23;20040;-82
2022/11/06 03:38:11;;;;;;;14.73;9.65;;;9.10;99.90;;;;;;6210969;23;20048;-81
2022/11/06 03:40:45;;;;;;;14.98;10.00;;;9.20;99.90;;;;;;6183539;23;20048;-82
2022/11/06 03:43:14;;;;;;;;;;;9.10;99.90;;;;;;6210994;23;20048;-81
2022/11/06 03:45:43;;;;;;;16.13;9.13;;;9.10;99.90;;;;;;6183133;23;19922;-81
2022/11/06 03:48:11;;;;;;;16.58;9.43;;;9.10;99.90;;;;;;6211130;23;20013;-82
2022/11/06 03:50:50;;;;;;;16.77;9.00;;;9.10;99.90;;;;;;6159577;23;20023;-82
2022/11/06 03:53:28;;;;;;;22.33;9.75;;;9.10;99.90;;;;;;6184221;23;20016;-81
2022/11/06 03:56:15;;;;;;;15.73;9.10;;;9.10;99.90;;;;;;6209680;23;20023;-82
2022/11/06 03:58:45;;;;;;;16.17;9.40;;;9.10;99.90;;;;;;6210334;23;20428;-82
2022/11/06 04:01:13;;;;;;;14.73;9.45;;;9.10;99.90;;;;;;6183948;23;20023;-82
2022/11/06 04:04:00;;;;;;;14.13;9.48;;;9.10;99.90;;;;;;6160448;23;20020;-82
2022/11/06 04:06:29;;;;;;;16.52;9.27;;;9.10;99.90;;;;;;6212597;23;20306;-82
2022/11/06 04:14:32;;;;;;;18.77;8.90;;;9.10;99.90;;;;;;6185128;23;20020;-82
2022/11/06 04:17:02;;;;;;;14.90;8.55;;;9.20;99.90;;;;;;6211737;23;20123;-81
2022/11/06 04:19:28;;;;;;;17.70;8.70;;;9.10;99.90;;;;;;6212239;23;20024;-82
2022/11/06 04:22:12;;;;;;;12.88;8.32;;;9.10;99.90;;;;;;6212759;23;20017;-81
2022/11/06 04:27:52;;;;;;;12.13;7.95;;;9.10;99.90;;;;;;6185214;23;20048;-82
2022/11/06 04:30:18;;;;;;;12.98;7.82;;;9.10;99.90;;;;;;6136460;23;20020;-81
2022/11/06 04:32:58;;;;;;;17.80;8.73;;;9.10;99.90;;;;;;6212275;23;20013;-81
2022/11/06 04:35:36;;;;;;;12.93;8.15;;;9.10;99.90;;;;;;6212172;23;20016;-81
2022/11/06 04:38:16;;;;;;;13.48;7.88;;;9.50;99.90;;;;;;6212470;23;20027;-81
2022/11/06 04:41:05;;;;;;;12.90;7.80;;;9.10;99.90;;;;;;6184692;23;20426;-82
2022/11/06 04:43:46;;;;;;;18.17;8.25;;;9.10;99.90;;;;;;6212336;23;20027;-82
2022/11/06 04:46:19;;;;;;;13.30;8.00;;;9.40;99.90;;;;;;6185186;23;20465;-81
2022/11/06 04:48:46;;;;;;;13.40;7.78;;;9.10;99.90;;;;;;6211821;23;20032;-81
2022/11/06 04:51:13;;;;;;;14.93;8.18;;;9.10;99.90;;;;;;6211882;23;20070;-81
2022/11/06 04:53:39;;;;;;;17.05;8.10;;;9.10;99.90;;;;;;6212288;23;20013;-82
2022/11/06 04:56:29;;;;;;;14.73;7.28;;;9.10;99.90;;;;;;6184070;23;20012;-82
2022/11/06 04:58:55;;;;;;;12.73;6.95;;;9.20;99.90;;;;;;6212020;23;20062;-81
2022/11/06 05:01:21;;;;;;;14.70;7.03;;;9.20;99.90;;;;;;6211613;23;20016;-81
2022/11/06 05:03:47;;;;;;;12.68;6.93;;;9.20;99.90;;;;;;6211715;23;20009;-82
2022/11/06 05:06:12;;;;;;;15.80;7.63;;;9.20;99.90;;;;;;6212153;23;20023;-81
2022/11/06 05:08:38;;;;;;;12.95;7.13;;;9.20;99.90;;;;;;6211650;23;20019;-81
2022/11/06 05:11:04;;;;;;;16.50;6.93;;;9.20;99.90;;;;;;6210378;23;20025;-81
2022/11/06 05:13:30;;;;;;;17.67;7.88;;;9.20;99.90;;;;;;6211988;23;20048;-81
2022/11/06 05:15:57;;;;;;;12.45;7.88;;;9.20;99.90;;;;;;6211687;23;20013;-82
2022/11/06 05:18:23;;;;;;;14.52;6.32;;;9.20;99.90;;;;;;6184541;23;20031;-82
2022/11/06 05:22:56;;;;;;;16.40;7.38;;;9.20;99.90;;;;;;6185092;23;20012;-81
2022/11/06 05:23:37;;;;;;;13.15;6.55;;;9.20;99.90;;;;;;6210645;23;20021;-81
2022/11/06 05:26:03;;;;;;;13.23;6.57;;;9.20;99.90;;;;;;6185188;23;20360;-82
2022/11/06 05:28:29;;;;;;;12.30;6.63;;;9.20;99.90;;;;;;6184913;23;20009;-81
2022/11/06 05:30:55;;;;;;;11.15;6.22;;;9.20;99.90;;;;;;6211856;23;20017;-81
2022/11/06 05:33:20;;;;;;;12.13;6.80;;;9.20;99.90;;;;;;6211221;23;20048;-82
2022/11/06 05:35:46;;;;;;;12.75;6.18;;;9.20;99.90;;;;;;6211192;23;20385;-82
2022/11/06 05:38:12;;;;;;;13.65;6.25;;;9.20;99.90;;;;;;6212550;23;20087;-82
2022/11/06 05:40:37;;;;;;;10.77;6.32;;;9.20;99.90;;;;;;6211924;23;20092;-82
2022/11/06 05:43:03;;;;;;;13.52;6.13;;;9.20;99.90;;;;;;6212481;23;20023;-81
2022/11/06 05:45:28;;;;;;;12.25;6.68;;;9.30;99.90;;;;;;6160843;23;20028;-82
2022/11/06 05:47:54;;;;;;;13.35;6.85;;;9.20;99.90;;;;;;6184719;23;20005;-82
2022/11/06 05:50:20;;;;;;;11.70;6.63;;;9.20;99.90;;;;;;6211434;23;20016;-81
2022/11/06 05:52:45;;;;;;;18.00;6.07;;;9.20;99.90;;;;;;6211082;23;20045;-82
2022/11/06 05:55:11;;;;;;;14.45;6.80;;;9.20;99.90;;;;;;6211917;23;20084;-81
2022/11/06 05:57:37;;;;;;;15.50;7.05;;;9.20;99.90;;;;;;6184934;23;20024;-81
2022/11/06 06:00:04;;;;;;;11.13;6.10;;;9.20;99.90;;;;;;6211734;23;20020;-81
2022/11/06 06:02:30;;;;;;;13.77;5.85;;;9.20;99.90;;;;;;6211570;23;20052;-82
2022/11/06 06:04:56;;;;;;;14.73;6.30;;;9.20;99.90;;;;;;6185095;23;20024;-82
2022/11/06 06:07:22;;;;;;;13.43;5.63;;;9.20;99.90;;;;;;6183769;23;20017;-81
2022/11/06 06:09:47;;;;;;;16.30;5.72;;;9.30;99.90;;;;;;6211473;23;20012;-82
2022/11/06 06:12:13;;;;;;;13.50;5.90;;;9.20;99.90;;;;;;6211606;23;20059;-82
2022/11/06 06:14:39;;;;;;;14.23;5.13;;;9.30;99.90;;;;;;6184557;23;20017;-81
2022/11/06 06:17:05;;;;;;;9.18;5.28;;;9.30;99.90;;;;;;6210859;23;20084;-81
2022/11/06 06:19:30;;;;;;;10.95;4.80;;;9.30;99.90;;;;;;6211484;23;20397;-82
2022/11/06 06:21:56;;;;;;;12.15;5.20;;;9.30;99.90;;;;;;6210713;23;20051;-81
2022/11/06 06:24:22;;;;;;;8.55;4.68;;;9.30;99.90;;;;;;6211131;23;20354;-81
2022/11/06 06:26:47;;;;;;;10.27;5.28;;;9.30;99.90;;;;;;6184113;23;20019;-81
2022/11/06 06:29:13;;;;;;;9.15;4.50;;;9.30;99.90;;;;;;6210553;23;20433;-81
2022/11/06 06:31:39;;;;;;;11.77;4.15;;;9.30;99.90;;;;;;6210473;23;20020;-81
2022/11/06 06:34:04;;;;;;;11.63;4.63;;;9.30;99.90;;;;;;6211884;23;20008;-82
2022/11/06 06:36:30;;;;;;;13.40;5.10;;;9.30;99.90;;;;;;6212091;23;20430;-82
2022/11/06 06:38:55;;;;;;;12.82;5.28;;;9.30;99.90;;;;;;6212412;23;20035;-82
2022/11/06 06:41:21;;;;;;;8.85;4.20;;;9.30;99.90;;;;;;6211511;23;20021;-82
2022/11/06 06:43:48;;;;;;;12.48;4.70;;;9.30;99.90;;;;;;6212878;23;20042;-82
2022/11/06 06:46:14;;;;;;;12.10;4.70;;;9.30;99.90;;;;;;6210973;23;20019;-82
2022/11/06 06:48:39;;;;;;;14.77;4.78;;;9.30;99.90;;;;;;6185350;23;20036;-81
2022/11/06 06:51:06;;;;;;;12.00;4.70;;;9.30;99.90;;;;;;6211042;23;20009;-82
2022/11/06 06:53:32;;;;;;;10.82;4.65;;;9.30;99.90;;;;;;6212388;23;20021;-80
2022/11/06 06:55:59;;;;;;;12.40;4.68;;;9.40;99.90;;;;;;6211755;23;20306;-81
2022/11/06 06:58:25;;;;;;;8.32;4.50;;;9.40;99.90;;;;;;6160437;23;20441;-82
2022/11/06 07:00:51;;;;;;;12.82;3.92;;;9.40;99.90;;;;;;6185671;23;20298;-82
2022/11/06 07:03:17;;;;;;;13.88;4.50;;;9.50;99.90;;;;;;6185448;23;20327;-82
2022/11/06 07:05:42;;;;;;;8.73;4.30;;;9.50;99.90;;;;;;6211101;23;20020;-83
2022/11/06 07:08:08;;;;;;;9.63;4.80;;;9.50;99.90;;;;;;6211842;23;20020;-82
2022/11/06 07:10:34;;;;;;;12.70;4.22;;;9.50;99.90;;;;;;6212356;23;20076;-82
2022/11/06 07:13:01;;;;;;;11.93;4.15;;;9.60;99.90;;;;;;6185791;23;20366;-82
2022/11/06 07:15:27;;;;;;;12.73;5.07;;;9.60;99.90;;;;;;6211284;23;20020;-82
2022/11/06 07:17:53;;;;;;;9.88;3.97;;;9.60;99.90;;;;;;6185469;23;20016;-83
2022/11/06 07:20:18;;;;;;;10.90;4.10;;;9.60;99.90;;;;;;6184398;23;20016;-83
2022/11/06 07:22:44;;;;;;;9.30;3.85;;;9.60;99.90;;;;;;6185291;23;20017;-82
2022/11/06 07:25:10;;;;;;;9.05;4.20;;;9.70;99.90;;;;;;6211967;23;20314;-82
2022/11/06 07:27:35;;;;;;;10.48;3.45;;;9.70;99.90;;;;;;6211964;23;20119;-82
2022/11/06 07:30:01;;;;;;;12.73;3.67;;;9.80;99.90;;;;;;6185586;23;20016;-82
2022/11/06 07:32:27;;;;;;;11.07;3.38;;;9.80;99.90;;;;;;6211728;23;20338;-83
2022/11/06 07:34:53;;;;;;;9.48;3.25;;;9.80;99.90;;;;;;6211169;23;20009;-82
2022/11/06 07:37:18;;;;;;;11.32;3.40;;;9.90;99.90;;;;;;6213703;23;20465;-83
2022/11/06 07:39:44;;;;;;;15.40;3.70;;;9.90;99.90;;;;;;6213433;23;20020;-82
2022/11/06 07:42:10;;;;;;;9.25;4.00;;;9.90;99.90;;;;;;6215296;23;20445;-83
2022/11/06 07:44:35;;;;;;;10.18;3.47;;;9.90;99.90;;;;;;6189607;23;20016;-83
2022/11/06 07:47:01;;;;;;;9.43;2.90;;;10.00;99.90;;;;;;6188409;23;20128;-83
2022/11/06 07:49:26;;;;;;;9.52;3.67;;;10.00;99.90;;;;;;6214231;23;20017;-82
2022/11/06 07:51:52;;;;;;;15.20;3.10;;;10.10;99.90;;;;;;6162878;23;20067;-83
2022/11/06 07:54:18;;;;;;;9.25;2.58;;;10.10;99.90;;;;;;6162523;23;20066;-84
2022/11/06 07:56:43;;;;;;;10.23;3.40;;;10.10;99.90;;;;;;6213319;23;20509;-82
2022/11/06 07:59:09;;;;;;;10.02;2.83;;;10.20;99.90;;;;;;6184008;23;20099;-84
2022/11/06 08:01:34;;;;;;;8.77;3.67;;;10.20;99.90;;;;;;6161695;23;20349;-84
2022/11/06 08:04:00;;;;;;;12.02;3.75;;;10.20;99.90;;;;;;6161470;23;20020;-83
2022/11/06 08:06:25;;;;;;;10.32;5.03;;;10.10;99.90;;;;;;6212561;23;20016;-83
2022/11/06 08:08:51;;;;;;;11.75;3.42;;;10.10;99.90;;;;;;6185098;23;20043;-83
2022/11/06 08:11:16;;;;;;;13.55;3.75;;;10.10;99.90;;;;;;6160926;23;20388;-83
2022/11/06 08:13:42;;;;;;;11.60;3.40;;;10.10;99.90;;;;;;6213038;23;20013;-82
2022/11/06 08:16:13;;;;;;;11.07;3.33;;;10.00;99.90;;;;;;6212127;23;20016;-82
2022/11/06 08:18:39;;;;;;;9.65;3.58;;;10.00;99.90;;;;;;6185305;23;20087;-82
2022/11/06 08:21:06;;;;;;;13.27;4.65;;;10.20;99.90;;;;;;6185238;23;20016;-82
2022/11/06 08:23:32;;;;;;;8.40;2.95;;;10.10;99.90;;;;;;6212135;23;20471;-83
2022/11/06 08:26:00;;;;;;;11.73;4.20;;;10.00;99.90;;;;;;6186392;23;20085;-83
2022/11/06 08:28:26;;;;;;;9.43;4.20;;;10.00;99.90;;;;;;6184970;23;20445;-84
2022/11/06 08:30:52;;;;;;;9.05;3.20;;;10.00;99.90;;;;;;6212571;23;20020;-83
2022/11/06 08:33:20;;;;;;;12.00;4.05;;;10.00;99.90;;;;;;6212323;23;20013;-83
2022/11/06 08:35:46;;;;;;;11.65;4.10;;;10.00;99.90;;;;;;6212056;23;20012;-82
2022/11/06 08:38:11;;;;;;;9.55;3.85;;;10.00;99.90;;;;;;6213738;23;20013;-81
2022/11/06 08:40:38;;;;;;;11.82;3.90;;;10.00;99.90;;;;;;6186683;23;20025;-80
2022/11/06 08:43:06;;;;;;;9.27;3.83;;;10.00;99.90;;;;;;6185381;23;20025;-83
2022/11/06 08:45:34;;;;;;;7.50;3.13;;;10.00;99.90;;;;;;6211220;23;20066;-83
2022/11/06 08:48:01;;;;;;;6.15;3.13;;;10.00;99.90;;;;;;6210019;23;20025;-83
2022/11/06 08:50:28;;;;;;;6.97;3.92;;;9.90;99.90;;;;;;6209628;23;20009;-83
2022/11/06 08:52:57;;;;;;;11.00;4.13;;;10.00;99.90;;;;;;6210783;23;20087;-83
2022/11/06 08:55:23;;;;;;;9.18;3.28;;;9.90;99.90;;;;;;6184143;23;20090;-83
2022/11/06 08:57:48;;;;;;;14.80;3.40;;;9.90;99.90;;;;;;6183969;23;20009;-83
2022/11/06 09:00:15;;;;;;;9.50;3.40;;;10.00;99.90;;;;;;6210338;23;20020;-84
2022/11/06 09:02:41;;;;;;;9.73;3.67;;;10.00;99.90;;;;;;6210813;23;20012;-82
2022/11/06 09:05:07;;;;;;;8.23;2.65;;;10.10;99.90;;;;;;6185147;23;20323;-83
2022/11/06 09:07:33;;;;;;;8.50;2.80;;;10.10;99.90;;;;;;6210237;23;20373;-83
2022/11/06 09:09:58;;;;;;;9.25;3.55;;;10.10;99.90;;;;;;6158940;23;20027;-85
2022/11/06 09:12:24;;;;;;;7.68;3.10;;;10.10;99.90;;;;;;6211174;23;20050;-86
2022/11/06 09:14:49;;;;;;;7.18;2.72;;;10.10;99.90;;;;;;6211212;23;20012;-84
2022/11/06 09:17:16;;;;;;;7.82;2.90;;;10.10;99.90;;;;;;6211373;23;20004;-84
2022/11/06 09:19:41;;;;;;;13.35;3.22;;;10.10;99.90;;;;;;6212256;23;20017;-85
2022/11/06 09:22:07;;;;;;;6.38;3.08;;;10.20;99.90;;;;;;6210898;23;20071;-85
2022/11/06 09:24:33;;;;;;;4.88;2.45;;;10.20;99.90;;;;;;6184350;23;20318;-85
2022/11/06 09:26:58;;;;;;;8.85;2.72;;;10.30;99.90;;;;;;6211700;23;20023;-84
2022/11/06 09:29:24;;;;;;;7.63;3.10;;;10.40;99.90;;;;;;6183852;23;20059;-86
2022/11/06 09:31:49;;;;;;;7.18;2.28;;;10.50;99.90;;;;;;6184054;23;20013;-85
2022/11/06 09:34:15;;;;;;;11.55;3.05;;;10.50;99.90;;;;;;6184665;23;20507;-84
2022/11/06 09:36:41;;;;;;;8.55;2.28;;;10.60;99.90;;;;;;6183972;23;20016;-86
2022/11/06 09:39:06;;;;;;;8.13;2.70;;;10.60;99.90;;;;;;6183890;23;20063;-86
2022/11/06 09:41:45;;;;;;;9.90;2.65;;;10.60;99.90;;;;;;6210795;23;20340;-87
2022/11/06 09:44:32;;;;;;;10.70;2.53;;;10.70;99.90;;;;;;6209885;23;20020;-86
2022/11/06 09:47:02;;;;;;;7.40;2.60;;;10.80;99.90;;;;;;6213617;23;20043;-86
2022/11/06 09:49:34;;;;;;;7.47;2.33;;;11.00;99.90;;;;;;6211948;23;20469;-83
2022/11/06 09:52:13;;;;;;;12.63;2.00;;;11.10;99.90;;;;;;6211307;23;20427;-84
2022/11/06 09:54:55;;;;;;;8.48;2.80;;;11.30;99.90;;;;;;6211530;23;20016;-83
2022/11/06 09:57:28;;;;;;;7.63;2.30;;;11.40;99.90;;;;;;6182199;23;20575;-81
2022/11/06 09:59:55;;;;;;;10.10;2.35;;;11.50;99.90;;;;;;6210122;23;20024;-81
2022/11/06 10:02:51;;;;;;;10.27;2.55;;;11.50;99.90;;;;;;6184692;23;20094;-81
2022/11/06 10:05:35;;;;;;;7.20;2.17;;;11.60;99.90;;;;;;6203842;23;20028;-81
2022/11/06 10:08:03;;;;;;;8.48;2.17;;;11.60;99.90;;;;;;6211051;23;20088;-81
2022/11/06 10:10:40;;;;;;;7.13;2.10;;;11.60;99.90;;;;;;6211333;23;20017;-81
2022/11/06 10:13:17;;;;;;;9.82;2.40;;;11.60;99.90;;;;;;6184591;23;20021;-81
2022/11/06 10:15:48;;;;;;;5.90;2.13;;;11.60;99.90;;;;;;6211932;23;20019;-81
2022/11/06 10:18:33;;;;;;;9.95;2.08;;;11.60;99.90;;;;;;6210978;23;20505;-81
2022/11/06 10:21:10;;;;;;;8.88;1.70;;;11.70;99.90;;;;;;6184490;23;20016;-81
2022/11/06 10:23:43;;;;;;;7.72;1.80;;;11.70;99.90;;;;;;6211565;23;20023;-81
2022/11/06 10:26:14;;;;;;;11.38;4.65;;;11.80;99.90;;;;;;6211614;23;20013;-81
2022/11/06 10:28:52;;;;;;;7.05;1.60;;;11.80;99.90;;;;;;6210812;23;20017;-81
2022/11/06 10:31:53;;;;;;;5.57;1.63;;;11.90;99.90;;;;;;6184569;23;20017;-81
2022/11/06 10:34:30;;;;;;;6.65;1.92;;;11.90;99.90;;;;;;6211634;23;20086;-81
2022/11/06 10:37:04;;;;;;;10.75;3.25;;;11.90;99.90;;;;;;6211228;23;20032;-81
2022/11/06 10:39:33;;;;;;;8.10;2.00;;;12.00;99.90;;;;;;6210871;23;20017;-81
2022/11/06 10:42:20;;;;;;;7.72;1.73;;;12.00;99.90;;;;;;6184195;23;20021;-81
2022/11/06 10:44:45;;;;;;;5.60;1.38;;;12.00;99.90;;;;;;6186738;23;20427;-81
2022/11/06 10:47:17;;;;;;;7.47;1.77;;;12.00;99.90;;;;;;6184441;23;20016;-81
2022/11/06 10:49:52;;;;;;;9.77;1.70;;;12.00;99.90;;;;;;6211437;23;20023;-81
2022/11/06 10:52:46;;;;;;;7.03;1.58;;;12.00;99.90;;;;;;6211023;23;20464;-81
2022/11/06 10:55:49;;;;;;;8.45;1.80;;;11.90;99.90;;;;;;6211154;23;20023;-81
2022/11/06 10:58:19;;;;;;;7.65;2.00;;;11.90;99.90;;;;;;6190351;23;20380;-81
2022/11/06 11:00:45;;;;;;;10.23;2.22;;;11.90;99.90;;;;;;6211632;23;20013;-81
2022/11/06 11:03:25;;;;;;;5.07;1.70;;;11.90;99.90;;;;;;6184446;23;20146;-81
2022/11/06 11:05:51;;;;;;;8.73;4.10;;;11.80;99.90;;;;;;6184365;23;20027;-81
2022/11/06 11:08:34;;;;;;;7.32;1.85;;;11.90;99.90;;;;;;6210599;23;20016;-81
2022/11/06 11:11:14;;;;;;;6.60;1.70;;;11.90;99.90;;;;;;6210257;23;20341;-84
2022/11/06 11:13:56;;;;;;;5.60;1.73;;;12.00;99.90;;;;;;6183022;23;20067;-84
2022/11/06 11:16:25;;;;;;;6.45;2.17;;;12.00;99.90;;;;;;6211313;23;20102;-84
2022/11/06 11:18:51;;;;;;;5.97;2.00;;;12.00;99.90;;;;;;6209850;23;20012;-83
2022/11/06 11:21:17;;;;;;;6.40;2.03;;;12.00;99.90;;;;;;6208658;23;20012;-85
2022/11/06 11:23:43;;;;;;;9.30;3.17;;;11.90;99.90;;;;;;6183620;23;20026;-83
2022/11/06 11:26:23;;;;;;;8.23;1.95;;;11.80;99.90;;;;;;6183461;23;20016;-83
2022/11/06 11:28:54;;;;;;;8.77;2.47;;;11.90;99.90;;;;;;6210947;23;20009;-83
2022/11/06 11:31:28;;;;;;;7.93;2.80;;;11.80;99.90;;;;;;6210110;23;20063;-83
2022/11/06 11:33:55;;;;;;;;;;;11.80;99.90;;;;;;6211185;23;20017;-83
2022/11/06 11:36:21;;;;;;;6.53;1.63;;;11.70;99.90;;;;;;6209204;23;19912;-84
2022/11/06 11:38:47;;;;;;;8.95;2.05;;;11.70;99.90;;;;;;6210102;23;20017;-83
2022/11/06 11:41:22;;;;;;;9.98;2.20;;;11.60;99.90;;;;;;6210325;23;20038;-84
2022/11/06 11:44:12;;;;;;;5.25;1.67;;;11.60;99.90;;;;;;6209303;23;20537;-84
2022/11/06 11:46:54;;;;;;;9.10;1.95;;;11.60;99.90;;;;;;6210716;23;20017;-84
2022/11/06 11:49:27;;;;;;;8.10;2.30;;;11.50;99.90;;;;;;6212408;23;20008;-85
2022/11/06 11:51:54;;;;;;;7.00;2.10;;;11.40;99.90;;;;;;6212072;23;20019;-82
2022/11/06 11:54:25;;;;;;;7.28;2.97;;;11.40;99.90;;;;;;6209090;23;20017;-84
2022/11/06 11:57:02;;;;;;;10.65;2.72;;;11.50;99.90;;;;;;6182689;23;20020;-84
2022/11/06 11:59:29;;;;;;;6.28;1.98;;;11.40;99.90;;;;;;6210413;23;20337;-85
2022/11/06 12:02:00;;;;;;;7.65;2.22;;;11.40;99.90;;;;;;6183891;23;20013;-84
2022/11/06 12:04:37;;;;;;;7.68;2.08;;;11.40;99.90;;;;;;6209771;23;20111;-83
2022/11/06 12:07:06;;;;;;;10.75;2.35;;;11.50;99.90;;;;;;6210089;23;20031;-83
2022/11/06 12:09:43;;;;;;;7.45;2.13;;;11.50;99.90;;;;;;6209914;23;20013;-84
2022/11/06 12:12:19;;;;;;;8.25;2.10;;;11.50;99.90;;;;;;6210301;23;20012;-84
2022/11/06 12:14:45;;;;;;;7.40;2.00;;;11.60;99.90;;;;;;6183515;23;20023;-83
2022/11/06 12:17:19;;;;;;;5.60;1.88;;;11.60;99.90;;;;;;6209610;23;20599;-84
2022/11/06 12:19:54;;;;;;;7.28;1.88;;;11.70;99.90;;;;;;6210201;23;20017;-83
2022/11/06 12:22:28;;;;;;;5.78;1.80;;;11.80;99.90;;;;;;6211001;23;20013;-83
2022/11/06 12:25:15;;;;;;;8.23;1.80;;;11.90;99.90;;;;;;6211326;23;20437;-84
2022/11/06 12:27:45;;;;;;;9.43;1.75;;;12.00;99.90;;;;;;6186044;23;20092;-85
2022/11/06 12:30:14;;;;;;;3.35;1.30;;;12.00;99.90;;;;;;6211988;23;20023;-84
2022/11/06 12:32:46;;;;;;;4.53;1.30;;;12.20;99.90;;;;;;6212523;23;20037;-85
2022/11/06 12:35:26;;;;;;;8.27;1.70;;;12.20;99.90;;;;;;6211510;23;20008;-83
2022/11/06 12:37:57;;;;;;;4.32;1.40;;;12.40;99.90;;;;;;6184331;23;20447;-82
2022/11/06 12:40:46;;;;;;;6.75;1.58;;;12.50;99.90;;;;;;6209855;23;20025;-83
2022/11/06 12:43:15;;;;;;;6.00;1.33;;;12.60;99.90;;;;;;6165261;23;20016;-83
2022/11/06 12:46:05;;;;;;;6.57;1.42;;;12.70;99.90;;;;;;6212063;23;20017;-83
2022/11/06 12:49:07;;;;;;;5.18;1.23;;;12.70;99.90;;;;;;6212018;23;20013;-84
2022/11/06 12:52:03;;;;;;;7.50;1.23;;;12.80;99.90;;;;;;6211662;23;20341;-82
2022/11/06 12:54:47;;;;;;;5.95;1.48;;;12.80;99.90;;;;;;6184139;23;20016;-83
2022/11/06 12:57:41;;;;;;;4.07;1.15;;;12.80;99.90;;;;;;6211020;23;20012;-83
2022/11/06 13:00:19;;;;;;;7.22;1.50;;;12.80;99.90;;;;;;6210587;23;20433;-82
2022/11/06 13:03:04;;;;;;;8.25;1.70;;;12.70;99.90;;;;;;6185501;23;20048;-82
2022/11/06 13:05:30;;;;;;;;;;;12.70;99.90;;;;;;6212631;23;20067;-82
2022/11/06 13:07:58;;;;;;;4.63;1.60;;;12.60;99.90;;;;;;6209657;23;20320;-82
2022/11/06 13:10:42;;;;;;;4.50;1.52;;;12.50;99.90;;;;;;6209930;23;20021;-83
2022/11/06 13:13:26;;;;;;;5.68;1.38;;;12.40;99.90;;;;;;6183920;23;20016;-82
2022/11/06 13:16:07;;;;;;;3.97;1.23;;;12.40;99.90;;;;;;6209800;23;20017;-82
2022/11/06 13:18:50;;;;;;;6.32;1.42;;;12.30;99.90;;;;;;6210107;23;20040;-82